sensor_id;sensor_type;location;lat;lon;timestamp;P1;durP1;ratioP1;P2;durP2;ratioP2
53797;SDS011;39707;45.384;9.300;2022-09-09T00:00:25;3.53;;;1.52;;
53797;SDS011;39707;45.384;9.300;2022-09-09T00:03:05;6.25;;;1.40;;
53797;SDS011;39707;45.384;9.300;2022-09-09T00:08:07;5.15;;;1.85;;
53797;SDS011;39707;45.384;9.300;2022-09-09T00:10:39;1.90;;;1.40;;
53797;SDS011;39707;45.384;9.300;2022-09-09T00:13:13;4.22;;;2.05;;
53797;SDS011;39707;45.384;9.300;2022-09-09T00:18:21;3.55;;;1.85;;
53797;SDS011;39707;45.384;9.300;2022-09-09T00:23:27;1.80;;;1.23;;
53797;SDS011;39707;45.384;9.300;2022-09-09T00:28:24;1.77;;;1.45;;
53797;SDS011;39707;45.384;9.300;2022-09-09T00:30:51;2.42;;;1.48;;
53797;SDS011;39707;45.384;9.300;2022-09-09T00:33:20;3.88;;;2.47;;
53797;SDS011;39707;45.384;9.300;2022-09-09T00:35:48;8.93;;;2.30;;
53797;SDS011;39707;45.384;9.300;2022-09-09T00:38:27;3.17;;;1.75;;
53797;SDS011;39707;45.384;9.300;2022-09-09T00:43:30;3.08;;;1.85;;
53797;SDS011;39707;45.384;9.300;2022-09-09T00:48:23;8.68;;;2.08;;
53797;SDS011;39707;45.384;9.300;2022-09-09T00:50:59;3.83;;;1.42;;
53797;SDS011;39707;45.384;9.300;2022-09-09T00:58:21;3.25;;;2.22;;
53797;SDS011;39707;45.384;9.300;2022-09-09T01:00:51;4.65;;;1.55;;
53797;SDS011;39707;45.384;9.300;2022-09-09T01:03:19;6.13;;;2.20;;
53797;SDS011;39707;45.384;9.300;2022-09-09T01:11:01;1.90;;;1.48;;
53797;SDS011;39707;45.384;9.300;2022-09-09T01:13:28;2.63;;;1.77;;
53797;SDS011;39707;45.384;9.300;2022-09-09T01:18:21;9.38;;;2.20;;
53797;SDS011;39707;45.384;9.300;2022-09-09T01:26:18;6.20;;;2.45;;
53797;SDS011;39707;45.384;9.300;2022-09-09T01:28:48;5.90;;;2.13;;
53797;SDS011;39707;45.384;9.300;2022-09-09T01:31:18;5.18;;;1.48;;
53797;SDS011;39707;45.384;9.300;2022-09-09T01:33:45;2.13;;;1.55;;
53797;SDS011;39707;45.384;9.300;2022-09-09T01:36:13;3.58;;;1.70;;
53797;SDS011;39707;45.384;9.300;2022-09-09T01:38:40;4.68;;;1.75;;
53797;SDS011;39707;45.384;9.300;2022-09-09T01:41:07;8.07;;;2.55;;
53797;SDS011;39707;45.384;9.300;2022-09-09T01:43:33;5.80;;;2.78;;
53797;SDS011;39707;45.384;9.300;2022-09-09T01:45:59;9.98;;;1.77;;
53797;SDS011;39707;45.384;9.300;2022-09-09T01:48:27;2.22;;;1.67;;
53797;SDS011;39707;45.384;9.300;2022-09-09T01:50:53;3.03;;;1.75;;
53797;SDS011;39707;45.384;9.300;2022-09-09T01:53:19;9.70;;;2.58;;
53797;SDS011;39707;45.384;9.300;2022-09-09T01:55:49;3.08;;;1.63;;
53797;SDS011;39707;45.384;9.300;2022-09-09T02:00:57;3.72;;;2.10;;
53797;SDS011;39707;45.384;9.300;2022-09-09T02:03:27;4.32;;;1.60;;
53797;SDS011;39707;45.384;9.300;2022-09-09T02:08:43;5.30;;;1.60;;
53797;SDS011;39707;45.384;9.300;2022-09-09T02:11:12;3.50;;;2.13;;
53797;SDS011;39707;45.384;9.300;2022-09-09T02:13:39;6.80;;;2.22;;
53797;SDS011;39707;45.384;9.300;2022-09-09T02:18:35;4.90;;;2.45;;
53797;SDS011;39707;45.384;9.300;2022-09-09T02:21:03;5.40;;;2.92;;
53797;SDS011;39707;45.384;9.300;2022-09-09T02:23:31;4.82;;;2.28;;
53797;SDS011;39707;45.384;9.300;2022-09-09T02:25:57;6.63;;;1.75;;
53797;SDS011;39707;45.384;9.300;2022-09-09T02:28:25;2.07;;;1.60;;
53797;SDS011;39707;45.384;9.300;2022-09-09T02:30:52;3.38;;;1.80;;
53797;SDS011;39707;45.384;9.300;2022-09-09T02:33:20;9.55;;;2.40;;
53797;SDS011;39707;45.384;9.300;2022-09-09T02:35:48;5.15;;;2.00;;
53797;SDS011;39707;45.384;9.300;2022-09-09T02:38:15;4.10;;;2.30;;
53797;SDS011;39707;45.384;9.300;2022-09-09T02:40:41;6.72;;;2.08;;
53797;SDS011;39707;45.384;9.300;2022-09-09T02:43:07;5.97;;;1.98;;
53797;SDS011;39707;45.384;9.300;2022-09-09T02:45:40;3.70;;;1.88;;
53797;SDS011;39707;45.384;9.300;2022-09-09T02:50:54;4.57;;;2.22;;
53797;SDS011;39707;45.384;9.300;2022-09-09T02:53:23;3.47;;;1.83;;
53797;SDS011;39707;45.384;9.300;2022-09-09T02:55:52;4.72;;;2.95;;
53797;SDS011;39707;45.384;9.300;2022-09-09T02:58:19;5.53;;;2.72;;
53797;SDS011;39707;45.384;9.300;2022-09-09T03:00:46;3.67;;;2.53;;
53797;SDS011;39707;45.384;9.300;2022-09-09T03:03:13;4.13;;;2.00;;
53797;SDS011;39707;45.384;9.300;2022-09-09T03:05:41;7.38;;;3.05;;
53797;SDS011;39707;45.384;9.300;2022-09-09T03:08:07;5.38;;;2.92;;
53797;SDS011;39707;45.384;9.300;2022-09-09T03:10:34;8.13;;;1.97;;
53797;SDS011;39707;45.384;9.300;2022-09-09T03:15:28;4.00;;;1.85;;
53797;SDS011;39707;45.384;9.300;2022-09-09T03:17:56;3.40;;;2.22;;
53797;SDS011;39707;45.384;9.300;2022-09-09T03:20:23;5.00;;;1.67;;
53797;SDS011;39707;45.384;9.300;2022-09-09T03:22:50;7.40;;;2.55;;
53797;SDS011;39707;45.384;9.300;2022-09-09T03:25:16;6.25;;;2.45;;
53797;SDS011;39707;45.384;9.300;2022-09-09T03:27:43;5.03;;;2.97;;
53797;SDS011;39707;45.384;9.300;2022-09-09T03:30:09;12.35;;;2.85;;
53797;SDS011;39707;45.384;9.300;2022-09-09T03:32:36;2.92;;;1.75;;
53797;SDS011;39707;45.384;9.300;2022-09-09T03:35:02;5.47;;;2.80;;
53797;SDS011;39707;45.384;9.300;2022-09-09T03:37:28;2.78;;;2.28;;
53797;SDS011;39707;45.384;9.300;2022-09-09T03:39:54;5.30;;;1.65;;
53797;SDS011;39707;45.384;9.300;2022-09-09T03:42:20;3.10;;;1.50;;
53797;SDS011;39707;45.384;9.300;2022-09-09T03:44:46;8.80;;;3.05;;
53797;SDS011;39707;45.384;9.300;2022-09-09T03:47:19;5.68;;;2.08;;
53797;SDS011;39707;45.384;9.300;2022-09-09T03:49:46;5.30;;;1.52;;
53797;SDS011;39707;45.384;9.300;2022-09-09T03:52:13;4.15;;;2.03;;
53797;SDS011;39707;45.384;9.300;2022-09-09T03:54:39;5.43;;;2.67;;
53797;SDS011;39707;45.384;9.300;2022-09-09T03:57:07;5.13;;;2.63;;
53797;SDS011;39707;45.384;9.300;2022-09-09T03:59:34;3.65;;;1.83;;
53797;SDS011;39707;45.384;9.300;2022-09-09T04:02:00;4.80;;;2.42;;
53797;SDS011;39707;45.384;9.300;2022-09-09T04:04:27;5.93;;;2.73;;
53797;SDS011;39707;45.384;9.300;2022-09-09T04:06:53;3.45;;;1.88;;
53797;SDS011;39707;45.384;9.300;2022-09-09T04:09:19;4.95;;;2.33;;
53797;SDS011;39707;45.384;9.300;2022-09-09T04:11:46;5.72;;;1.75;;
53797;SDS011;39707;45.384;9.300;2022-09-09T04:14:14;3.78;;;2.30;;
53797;SDS011;39707;45.384;9.300;2022-09-09T04:16:40;5.43;;;2.55;;
53797;SDS011;39707;45.384;9.300;2022-09-09T04:19:09;4.05;;;2.20;;
53797;SDS011;39707;45.384;9.300;2022-09-09T04:21:37;3.00;;;1.90;;
53797;SDS011;39707;45.384;9.300;2022-09-09T04:24:04;6.20;;;2.15;;
53797;SDS011;39707;45.384;9.300;2022-09-09T04:26:32;3.40;;;2.13;;
53797;SDS011;39707;45.384;9.300;2022-09-09T04:28:58;5.27;;;1.93;;
53797;SDS011;39707;45.384;9.300;2022-09-09T04:31:24;5.22;;;1.98;;
53797;SDS011;39707;45.384;9.300;2022-09-09T04:33:50;5.88;;;3.47;;
53797;SDS011;39707;45.384;9.300;2022-09-09T04:36:17;5.93;;;2.97;;
53797;SDS011;39707;45.384;9.300;2022-09-09T04:38:44;4.72;;;2.25;;
53797;SDS011;39707;45.384;9.300;2022-09-09T04:41:10;4.65;;;1.63;;
53797;SDS011;39707;45.384;9.300;2022-09-09T04:43:37;5.13;;;2.80;;
53797;SDS011;39707;45.384;9.300;2022-09-09T04:46:03;6.95;;;1.98;;
53797;SDS011;39707;45.384;9.300;2022-09-09T04:48:30;9.18;;;1.98;;
53797;SDS011;39707;45.384;9.300;2022-09-09T04:51:00;4.07;;;2.08;;
53797;SDS011;39707;45.384;9.300;2022-09-09T04:53:28;4.70;;;1.80;;
53797;SDS011;39707;45.384;9.300;2022-09-09T04:56:27;9.20;;;2.40;;
53797;SDS011;39707;45.384;9.300;2022-09-09T04:58:46;4.07;;;1.95;;
53797;SDS011;39707;45.384;9.300;2022-09-09T05:01:17;5.63;;;2.17;;
53797;SDS011;39707;45.384;9.300;2022-09-09T05:03:43;7.18;;;2.65;;
53797;SDS011;39707;45.384;9.300;2022-09-09T05:06:13;4.18;;;1.60;;
53797;SDS011;39707;45.384;9.300;2022-09-09T05:08:40;5.55;;;2.55;;
53797;SDS011;39707;45.384;9.300;2022-09-09T05:11:20;5.68;;;1.67;;
53797;SDS011;39707;45.384;9.300;2022-09-09T05:13:49;6.00;;;1.95;;
53797;SDS011;39707;45.384;9.300;2022-09-09T05:16:15;4.18;;;2.55;;
53797;SDS011;39707;45.384;9.300;2022-09-09T05:18:42;2.05;;;1.65;;
53797;SDS011;39707;45.384;9.300;2022-09-09T05:21:08;5.53;;;2.45;;
53797;SDS011;39707;45.384;9.300;2022-09-09T05:23:34;6.93;;;2.63;;
53797;SDS011;39707;45.384;9.300;2022-09-09T05:26:00;2.58;;;2.13;;
53797;SDS011;39707;45.384;9.300;2022-09-09T05:28:27;6.65;;;2.72;;
53797;SDS011;39707;45.384;9.300;2022-09-09T05:30:57;2.42;;;1.48;;
53797;SDS011;39707;45.384;9.300;2022-09-09T05:33:24;6.03;;;2.25;;
53797;SDS011;39707;45.384;9.300;2022-09-09T05:36:00;4.97;;;2.90;;
53797;SDS011;39707;45.384;9.300;2022-09-09T05:38:27;5.88;;;3.00;;
53797;SDS011;39707;45.384;9.300;2022-09-09T05:40:54;5.10;;;2.58;;
53797;SDS011;39707;45.384;9.300;2022-09-09T05:43:21;3.92;;;2.50;;
53797;SDS011;39707;45.384;9.300;2022-09-09T05:45:47;1.73;;;1.15;;
53797;SDS011;39707;45.384;9.300;2022-09-09T05:48:16;7.00;;;2.50;;
53797;SDS011;39707;45.384;9.300;2022-09-09T05:50:42;5.85;;;2.13;;
53797;SDS011;39707;45.384;9.300;2022-09-09T05:53:10;4.10;;;2.03;;
53797;SDS011;39707;45.384;9.300;2022-09-09T05:55:36;3.95;;;1.88;;
53797;SDS011;39707;45.384;9.300;2022-09-09T05:58:02;4.68;;;2.95;;
53797;SDS011;39707;45.384;9.300;2022-09-09T06:00:29;3.22;;;1.45;;
53797;SDS011;39707;45.384;9.300;2022-09-09T06:02:57;6.93;;;2.65;;
53797;SDS011;39707;45.384;9.300;2022-09-09T06:05:23;6.30;;;3.47;;
53797;SDS011;39707;45.384;9.300;2022-09-09T06:07:52;6.75;;;3.28;;
53797;SDS011;39707;45.384;9.300;2022-09-09T06:10:18;8.53;;;2.90;;
53797;SDS011;39707;45.384;9.300;2022-09-09T06:12:45;5.55;;;2.53;;
53797;SDS011;39707;45.384;9.300;2022-09-09T06:15:11;5.90;;;1.98;;
53797;SDS011;39707;45.384;9.300;2022-09-09T06:17:37;9.10;;;2.72;;
53797;SDS011;39707;45.384;9.300;2022-09-09T06:20:04;3.87;;;2.23;;
53797;SDS011;39707;45.384;9.300;2022-09-09T06:22:34;3.45;;;2.00;;
53797;SDS011;39707;45.384;9.300;2022-09-09T06:25:00;3.45;;;1.05;;
53797;SDS011;39707;45.384;9.300;2022-09-09T06:27:27;3.55;;;2.30;;
53797;SDS011;39707;45.384;9.300;2022-09-09T06:29:53;2.55;;;1.73;;
53797;SDS011;39707;45.384;9.300;2022-09-09T06:32:19;2.92;;;2.53;;
53797;SDS011;39707;45.384;9.300;2022-09-09T06:34:46;4.15;;;1.77;;
53797;SDS011;39707;45.384;9.300;2022-09-09T06:37:14;5.43;;;2.83;;
53797;SDS011;39707;45.384;9.300;2022-09-09T06:39:40;9.43;;;2.95;;
53797;SDS011;39707;45.384;9.300;2022-09-09T06:42:06;2.35;;;1.73;;
53797;SDS011;39707;45.384;9.300;2022-09-09T06:44:33;8.07;;;1.63;;
53797;SDS011;39707;45.384;9.300;2022-09-09T06:47:04;3.08;;;2.08;;
53797;SDS011;39707;45.384;9.300;2022-09-09T06:49:31;9.05;;;2.72;;
53797;SDS011;39707;45.384;9.300;2022-09-09T06:51:57;3.03;;;1.63;;
53797;SDS011;39707;45.384;9.300;2022-09-09T06:54:24;3.65;;;1.60;;
53797;SDS011;39707;45.384;9.300;2022-09-09T06:56:50;2.78;;;1.67;;
53797;SDS011;39707;45.384;9.300;2022-09-09T06:59:17;1.85;;;1.52;;
53797;SDS011;39707;45.384;9.300;2022-09-09T07:01:43;3.80;;;2.15;;
53797;SDS011;39707;45.384;9.300;2022-09-09T07:04:09;2.08;;;1.45;;
53797;SDS011;39707;45.384;9.300;2022-09-09T07:06:39;1.65;;;1.05;;
53797;SDS011;39707;45.384;9.300;2022-09-09T07:09:06;2.58;;;0.98;;
53797;SDS011;39707;45.384;9.300;2022-09-09T07:11:40;4.38;;;1.60;;
53797;SDS011;39707;45.384;9.300;2022-09-09T07:14:07;1.17;;;0.55;;
53797;SDS011;39707;45.384;9.300;2022-09-09T07:16:33;0.77;;;0.50;;
53797;SDS011;39707;45.384;9.300;2022-09-09T07:19:02;0.30;;;0.25;;
53797;SDS011;39707;45.384;9.300;2022-09-09T07:21:28;0.45;;;0.45;;
53797;SDS011;39707;45.384;9.300;2022-09-09T07:23:54;0.15;;;0.15;;
53797;SDS011;39707;45.384;9.300;2022-09-09T07:26:22;1.92;;;0.20;;
53797;SDS011;39707;45.384;9.300;2022-09-09T07:28:48;0.40;;;0.20;;
53797;SDS011;39707;45.384;9.300;2022-09-09T07:31:15;0.47;;;0.30;;
53797;SDS011;39707;45.384;9.300;2022-09-09T07:33:48;0.13;;;0.10;;
53797;SDS011;39707;45.384;9.300;2022-09-09T07:36:15;0.10;;;0.10;;
53797;SDS011;39707;45.384;9.300;2022-09-09T07:38:45;0.10;;;0.10;;
53797;SDS011;39707;45.384;9.300;2022-09-09T07:41:14;0.10;;;0.10;;
53797;SDS011;39707;45.384;9.300;2022-09-09T07:43:41;0.60;;;0.43;;
53797;SDS011;39707;45.384;9.300;2022-09-09T07:46:08;0.20;;;0.20;;
53797;SDS011;39707;45.384;9.300;2022-09-09T07:48:35;0.10;;;0.10;;
53797;SDS011;39707;45.384;9.300;2022-09-09T07:51:08;0.00;;;0.00;;
53797;SDS011;39707;45.384;9.300;2022-09-09T07:53:36;0.10;;;0.10;;
53797;SDS011;39707;45.384;9.300;2022-09-09T07:56:07;1.00;;;0.22;;
53797;SDS011;39707;45.384;9.300;2022-09-09T07:58:34;0.10;;;0.10;;
53797;SDS011;39707;45.384;9.300;2022-09-09T08:01:05;0.20;;;0.10;;
53797;SDS011;39707;45.384;9.300;2022-09-09T08:03:33;0.63;;;0.10;;
53797;SDS011;39707;45.384;9.300;2022-09-09T08:06:02;1.83;;;0.77;;
53797;SDS011;39707;45.384;9.300;2022-09-09T08:08:29;0.17;;;0.13;;
53797;SDS011;39707;45.384;9.300;2022-09-09T08:11:01;1.70;;;0.38;;
53797;SDS011;39707;45.384;9.300;2022-09-09T08:13:27;0.20;;;0.20;;
53797;SDS011;39707;45.384;9.300;2022-09-09T08:15:53;8.60;;;0.20;;
53797;SDS011;39707;45.384;9.300;2022-09-09T08:18:19;0.20;;;0.10;;
53797;SDS011;39707;45.384;9.300;2022-09-09T08:20:45;0.30;;;0.10;;
53797;SDS011;39707;45.384;9.300;2022-09-09T08:23:18;0.28;;;0.10;;
53797;SDS011;39707;45.384;9.300;2022-09-09T08:25:44;0.20;;;0.20;;
53797;SDS011;39707;45.384;9.300;2022-09-09T08:28:10;0.13;;;0.13;;
53797;SDS011;39707;45.384;9.300;2022-09-09T08:30:36;0.15;;;0.15;;
53797;SDS011;39707;45.384;9.300;2022-09-09T08:33:04;0.65;;;0.43;;
53797;SDS011;39707;45.384;9.300;2022-09-09T08:35:31;0.03;;;0.03;;
53797;SDS011;39707;45.384;9.300;2022-09-09T08:37:57;0.25;;;0.25;;
53797;SDS011;39707;45.384;9.300;2022-09-09T08:40:26;0.20;;;0.20;;
53797;SDS011;39707;45.384;9.300;2022-09-09T08:42:54;0.00;;;0.00;;
53797;SDS011;39707;45.384;9.300;2022-09-09T08:50:50;0.08;;;0.03;;
53797;SDS011;39707;45.384;9.300;2022-09-09T09:06:01;1.08;;;0.17;;
53797;SDS011;39707;45.384;9.300;2022-09-09T09:08:33;0.10;;;0.10;;
53797;SDS011;39707;45.384;9.300;2022-09-09T09:11:03;0.77;;;0.03;;
53797;SDS011;39707;45.384;9.300;2022-09-09T09:17:02;0.10;;;0.10;;
53797;SDS011;39707;45.384;9.300;2022-09-09T09:18:59;0.00;;;0.00;;
53797;SDS011;39707;45.384;9.300;2022-09-09T09:23:58;0.15;;;0.10;;
53797;SDS011;39707;45.384;9.300;2022-09-09T09:26:30;1.55;;;0.40;;
53797;SDS011;39707;45.384;9.300;2022-09-09T09:28:57;0.60;;;0.17;;
53797;SDS011;39707;45.384;9.300;2022-09-09T09:31:24;1.17;;;0.45;;
53797;SDS011;39707;45.384;9.300;2022-09-09T09:36:19;0.10;;;0.10;;
53797;SDS011;39707;45.384;9.300;2022-09-09T09:38:59;3.42;;;0.40;;
53797;SDS011;39707;45.384;9.300;2022-09-09T09:44:03;0.38;;;0.22;;
53797;SDS011;39707;45.384;9.300;2022-09-09T09:46:30;0.10;;;0.10;;
53797;SDS011;39707;45.384;9.300;2022-09-09T09:49:00;0.10;;;0.10;;
53797;SDS011;39707;45.384;9.300;2022-09-09T09:51:26;0.10;;;0.10;;
53797;SDS011;39707;45.384;9.300;2022-09-09T09:53:53;0.10;;;0.10;;
53797;SDS011;39707;45.384;9.300;2022-09-09T09:56:26;1.05;;;0.08;;
53797;SDS011;39707;45.384;9.300;2022-09-09T09:58:54;0.50;;;0.28;;
53797;SDS011;39707;45.384;9.300;2022-09-09T10:01:22;0.13;;;0.10;;
53797;SDS011;39707;45.384;9.300;2022-09-09T10:03:59;0.28;;;0.20;;
53797;SDS011;39707;45.384;9.300;2022-09-09T10:06:33;0.90;;;0.80;;
53797;SDS011;39707;45.384;9.300;2022-09-09T10:09:01;0.75;;;0.50;;
53797;SDS011;39707;45.384;9.300;2022-09-09T10:19:06;0.13;;;0.13;;
53797;SDS011;39707;45.384;9.300;2022-09-09T10:37:19;0.52;;;0.20;;
53797;SDS011;39707;45.384;9.300;2022-09-09T10:39:50;0.43;;;0.20;;
53797;SDS011;39707;45.384;9.300;2022-09-09T10:42:26;0.10;;;0.10;;
53797;SDS011;39707;45.384;9.300;2022-09-09T10:53:00;0.20;;;0.20;;
53797;SDS011;39707;45.384;9.300;2022-09-09T10:55:33;0.47;;;0.47;;
53797;SDS011;39707;45.384;9.300;2022-09-09T10:58:02;0.22;;;0.17;;
53797;SDS011;39707;45.384;9.300;2022-09-09T11:00:39;0.00;;;0.00;;
53797;SDS011;39707;45.384;9.300;2022-09-09T11:03:09;0.10;;;0.10;;
53797;SDS011;39707;45.384;9.300;2022-09-09T11:08:18;0.15;;;0.15;;
53797;SDS011;39707;45.384;9.300;2022-09-09T11:10:48;0.10;;;0.10;;
53797;SDS011;39707;45.384;9.300;2022-09-09T11:16:04;0.13;;;0.13;;
53797;SDS011;39707;45.384;9.300;2022-09-09T11:18:37;0.10;;;0.10;;
53797;SDS011;39707;45.384;9.300;2022-09-09T11:21:05;0.35;;;0.20;;
53797;SDS011;39707;45.384;9.300;2022-09-09T11:23:40;0.17;;;0.17;;
53797;SDS011;39707;45.384;9.300;2022-09-09T11:26:10;0.20;;;0.13;;
53797;SDS011;39707;45.384;9.300;2022-09-09T11:28:51;0.35;;;0.22;;
53797;SDS011;39707;45.384;9.300;2022-09-09T11:33:52;0.20;;;0.20;;
53797;SDS011;39707;45.384;9.300;2022-09-09T11:38:51;0.82;;;0.35;;
53797;SDS011;39707;45.384;9.300;2022-09-09T11:41:18;0.00;;;0.00;;
53797;SDS011;39707;45.384;9.300;2022-09-09T11:43:46;0.10;;;0.10;;
53797;SDS011;39707;45.384;9.300;2022-09-09T11:46:14;0.35;;;0.20;;
53797;SDS011;39707;45.384;9.300;2022-09-09T11:48:45;0.13;;;0.13;;
53797;SDS011;39707;45.384;9.300;2022-09-09T11:51:26;0.30;;;0.30;;
53797;SDS011;39707;45.384;9.300;2022-09-09T11:53:57;1.25;;;0.35;;
53797;SDS011;39707;45.384;9.300;2022-09-09T11:56:34;0.43;;;0.38;;
53797;SDS011;39707;45.384;9.300;2022-09-09T11:59:05;2.55;;;0.20;;
53797;SDS011;39707;45.384;9.300;2022-09-09T12:06:43;0.30;;;0.20;;
53797;SDS011;39707;45.384;9.300;2022-09-09T12:12:05;0.43;;;0.43;;
53797;SDS011;39707;45.384;9.300;2022-09-09T12:17:10;0.60;;;0.47;;
53797;SDS011;39707;45.384;9.300;2022-09-09T12:19:43;0.00;;;0.00;;
53797;SDS011;39707;45.384;9.300;2022-09-09T12:27:35;2.17;;;0.32;;
53797;SDS011;39707;45.384;9.300;2022-09-09T12:30:08;0.50;;;0.40;;
53797;SDS011;39707;45.384;9.300;2022-09-09T12:32:35;0.45;;;0.38;;
53797;SDS011;39707;45.384;9.300;2022-09-09T12:35:03;1.20;;;0.20;;
53797;SDS011;39707;45.384;9.300;2022-09-09T12:37:33;0.38;;;0.38;;
53797;SDS011;39707;45.384;9.300;2022-09-09T12:40:01;0.30;;;0.20;;
53797;SDS011;39707;45.384;9.300;2022-09-09T12:42:28;1.05;;;0.50;;
53797;SDS011;39707;45.384;9.300;2022-09-09T12:44:56;2.08;;;0.47;;
53797;SDS011;39707;45.384;9.300;2022-09-09T12:47:45;0.82;;;0.20;;
53797;SDS011;39707;45.384;9.300;2022-09-09T12:50:17;0.85;;;0.43;;
53797;SDS011;39707;45.384;9.300;2022-09-09T12:52:45;0.90;;;0.40;;
53797;SDS011;39707;45.384;9.300;2022-09-09T12:55:16;0.15;;;0.15;;
53797;SDS011;39707;45.384;9.300;2022-09-09T12:57:43;0.65;;;0.30;;
53797;SDS011;39707;45.384;9.300;2022-09-09T13:00:14;0.38;;;0.30;;
53797;SDS011;39707;45.384;9.300;2022-09-09T13:02:49;0.30;;;0.30;;
53797;SDS011;39707;45.384;9.300;2022-09-09T13:05:37;0.40;;;0.20;;
53797;SDS011;39707;45.384;9.300;2022-09-09T13:08:02;1.48;;;0.20;;
53797;SDS011;39707;45.384;9.300;2022-09-09T13:10:30;2.00;;;1.17;;
53797;SDS011;39707;45.384;9.300;2022-09-09T13:12:59;3.20;;;1.45;;
53797;SDS011;39707;45.384;9.300;2022-09-09T13:15:26;1.92;;;0.80;;
53797;SDS011;39707;45.384;9.300;2022-09-09T13:20:18;2.35;;;0.85;;
53797;SDS011;39707;45.384;9.300;2022-09-09T13:22:45;1.30;;;0.55;;
53797;SDS011;39707;45.384;9.300;2022-09-09T13:25:24;0.22;;;0.22;;
53797;SDS011;39707;45.384;9.300;2022-09-09T13:27:56;5.25;;;0.75;;
53797;SDS011;39707;45.384;9.300;2022-09-09T13:30:30;1.98;;;1.05;;
53797;SDS011;39707;45.384;9.300;2022-09-09T13:35:55;2.65;;;1.05;;
53797;SDS011;39707;45.384;9.300;2022-09-09T13:38:23;1.10;;;0.57;;
53797;SDS011;39707;45.384;9.300;2022-09-09T13:43:22;0.68;;;0.60;;
53797;SDS011;39707;45.384;9.300;2022-09-09T13:45:55;1.13;;;0.93;;
53797;SDS011;39707;45.384;9.300;2022-09-09T13:48:23;0.80;;;0.60;;
53797;SDS011;39707;45.384;9.300;2022-09-09T13:51:00;1.30;;;0.60;;
53797;SDS011;39707;45.384;9.300;2022-09-09T13:53:27;4.18;;;0.60;;
53797;SDS011;39707;45.384;9.300;2022-09-09T13:55:53;0.60;;;0.57;;
53797;SDS011;39707;45.384;9.300;2022-09-09T13:58:19;1.27;;;0.40;;
53797;SDS011;39707;45.384;9.300;2022-09-09T14:00:47;0.60;;;0.60;;
53797;SDS011;39707;45.384;9.300;2022-09-09T14:03:14;0.38;;;0.38;;
53797;SDS011;39707;45.384;9.300;2022-09-09T14:05:40;4.65;;;0.80;;
53797;SDS011;39707;45.384;9.300;2022-09-09T14:08:07;0.57;;;0.47;;
53797;SDS011;39707;45.384;9.300;2022-09-09T14:10:38;1.40;;;0.50;;
53797;SDS011;39707;45.384;9.300;2022-09-09T14:13:04;0.35;;;0.35;;
53797;SDS011;39707;45.384;9.300;2022-09-09T14:15:30;0.73;;;0.55;;
53797;SDS011;39707;45.384;9.300;2022-09-09T14:17:56;0.32;;;0.30;;
53797;SDS011;39707;45.384;9.300;2022-09-09T14:22:49;0.45;;;0.40;;
53797;SDS011;39707;45.384;9.300;2022-09-09T14:25:15;1.13;;;0.32;;
53797;SDS011;39707;45.384;9.300;2022-09-09T14:27:45;1.13;;;0.30;;
53797;SDS011;39707;45.384;9.300;2022-09-09T14:30:11;0.57;;;0.22;;
53797;SDS011;39707;45.384;9.300;2022-09-09T14:32:37;0.10;;;0.10;;
53797;SDS011;39707;45.384;9.300;2022-09-09T14:35:03;0.38;;;0.35;;
53797;SDS011;39707;45.384;9.300;2022-09-09T14:37:29;0.40;;;0.40;;
53797;SDS011;39707;45.384;9.300;2022-09-09T14:39:56;0.70;;;0.57;;
53797;SDS011;39707;45.384;9.300;2022-09-09T14:42:24;0.80;;;0.43;;
53797;SDS011;39707;45.384;9.300;2022-09-09T14:44:53;0.40;;;0.32;;
53797;SDS011;39707;45.384;9.300;2022-09-09T14:47:19;0.25;;;0.20;;
53797;SDS011;39707;45.384;9.300;2022-09-09T14:49:47;0.50;;;0.43;;
53797;SDS011;39707;45.384;9.300;2022-09-09T14:52:16;0.57;;;0.57;;
53797;SDS011;39707;45.384;9.300;2022-09-09T14:54:42;0.88;;;0.40;;
53797;SDS011;39707;45.384;9.300;2022-09-09T14:57:08;0.30;;;0.30;;
53797;SDS011;39707;45.384;9.300;2022-09-09T14:59:34;0.75;;;0.57;;
53797;SDS011;39707;45.384;9.300;2022-09-09T15:02:00;1.52;;;0.50;;
53797;SDS011;39707;45.384;9.300;2022-09-09T15:04:29;0.43;;;0.28;;
53797;SDS011;39707;45.384;9.300;2022-09-09T15:06:55;0.40;;;0.30;;
53797;SDS011;39707;45.384;9.300;2022-09-09T15:09:21;0.40;;;0.30;;
53797;SDS011;39707;45.384;9.300;2022-09-09T15:11:47;0.43;;;0.43;;
53797;SDS011;39707;45.384;9.300;2022-09-09T15:14:13;0.60;;;0.47;;
53797;SDS011;39707;45.384;9.300;2022-09-09T15:16:40;1.35;;;0.82;;
53797;SDS011;39707;45.384;9.300;2022-09-09T15:19:07;0.68;;;0.52;;
53797;SDS011;39707;45.384;9.300;2022-09-09T15:21:35;0.50;;;0.43;;
53797;SDS011;39707;45.384;9.300;2022-09-09T15:24:02;1.30;;;0.40;;
53797;SDS011;39707;45.384;9.300;2022-09-09T15:28:56;1.88;;;0.25;;
53797;SDS011;39707;45.384;9.300;2022-09-09T15:33:51;0.50;;;0.50;;
53797;SDS011;39707;45.384;9.300;2022-09-09T15:36:24;0.75;;;0.35;;
53797;SDS011;39707;45.384;9.300;2022-09-09T15:38:50;1.42;;;0.65;;
53797;SDS011;39707;45.384;9.300;2022-09-09T15:41:17;0.77;;;0.40;;
53797;SDS011;39707;45.384;9.300;2022-09-09T15:43:50;0.25;;;0.25;;
53797;SDS011;39707;45.384;9.300;2022-09-09T15:48:43;0.70;;;0.50;;
53797;SDS011;39707;45.384;9.300;2022-09-09T15:51:10;0.43;;;0.28;;
53797;SDS011;39707;45.384;9.300;2022-09-09T15:53:37;1.23;;;0.38;;
53797;SDS011;39707;45.384;9.300;2022-09-09T15:58:31;0.38;;;0.30;;
53797;SDS011;39707;45.384;9.300;2022-09-09T16:01:16;0.85;;;0.45;;
53797;SDS011;39707;45.384;9.300;2022-09-09T16:03:43;0.55;;;0.45;;
53797;SDS011;39707;45.384;9.300;2022-09-09T16:06:13;0.90;;;0.57;;
53797;SDS011;39707;45.384;9.300;2022-09-09T16:08:40;3.85;;;0.60;;
53797;SDS011;39707;45.384;9.300;2022-09-09T16:11:07;0.73;;;0.30;;
53797;SDS011;39707;45.384;9.300;2022-09-09T16:13:38;12.35;;;0.38;;
53797;SDS011;39707;45.384;9.300;2022-09-09T16:16:05;1.38;;;0.43;;
53797;SDS011;39707;45.384;9.300;2022-09-09T16:18:38;0.40;;;0.40;;
53797;SDS011;39707;45.384;9.300;2022-09-09T16:21:05;0.95;;;0.50;;
53797;SDS011;39707;45.384;9.300;2022-09-09T16:23:36;0.50;;;0.50;;
53797;SDS011;39707;45.384;9.300;2022-09-09T16:26:02;0.65;;;0.55;;
53797;SDS011;39707;45.384;9.300;2022-09-09T16:28:28;0.80;;;0.63;;
53797;SDS011;39707;45.384;9.300;2022-09-09T16:30:57;0.30;;;0.30;;
53797;SDS011;39707;45.384;9.300;2022-09-09T16:33:23;0.52;;;0.52;;
53797;SDS011;39707;45.384;9.300;2022-09-09T16:35:51;1.15;;;0.63;;
53797;SDS011;39707;45.384;9.300;2022-09-09T16:38:17;0.75;;;0.65;;
53797;SDS011;39707;45.384;9.300;2022-09-09T16:40:43;0.60;;;0.60;;
53797;SDS011;39707;45.384;9.300;2022-09-09T16:43:09;0.47;;;0.30;;
53797;SDS011;39707;45.384;9.300;2022-09-09T16:45:43;2.58;;;0.65;;
53797;SDS011;39707;45.384;9.300;2022-09-09T16:48:10;0.38;;;0.30;;
53797;SDS011;39707;45.384;9.300;2022-09-09T16:50:36;0.60;;;0.60;;
53797;SDS011;39707;45.384;9.300;2022-09-09T16:53:02;0.15;;;0.15;;
53797;SDS011;39707;45.384;9.300;2022-09-09T16:55:31;0.82;;;0.63;;
53797;SDS011;39707;45.384;9.300;2022-09-09T16:57:57;0.40;;;0.40;;
53797;SDS011;39707;45.384;9.300;2022-09-09T17:00:24;0.60;;;0.47;;
53797;SDS011;39707;45.384;9.300;2022-09-09T17:02:52;0.20;;;0.20;;
53797;SDS011;39707;45.384;9.300;2022-09-09T17:05:18;0.57;;;0.32;;
53797;SDS011;39707;45.384;9.300;2022-09-09T17:07:44;0.22;;;0.20;;
53797;SDS011;39707;45.384;9.300;2022-09-09T17:10:12;0.55;;;0.40;;
53797;SDS011;39707;45.384;9.300;2022-09-09T17:12:38;0.30;;;0.20;;
53797;SDS011;39707;45.384;9.300;2022-09-09T17:17:32;0.50;;;0.50;;
53797;SDS011;39707;45.384;9.300;2022-09-09T17:19:58;0.38;;;0.30;;
53797;SDS011;39707;45.384;9.300;2022-09-09T17:22:24;0.25;;;0.25;;
53797;SDS011;39707;45.384;9.300;2022-09-09T17:24:53;1.27;;;0.52;;
53797;SDS011;39707;45.384;9.300;2022-09-09T17:27:19;5.55;;;0.28;;
53797;SDS011;39707;45.384;9.300;2022-09-09T17:29:45;1.33;;;0.30;;